Terminal Aerodrome Forecast
Issued by NWS

Home | Current Version | Previous Version | Text Only | Print | Product List | Glossary On
Versions: 1 2 3 4 5 6 7 8 9 10 11 12
976
FTUS46 KSEW 251720
TAFBLI
TAF
KBLI 251720Z 2518/2618 32008KT P6SM SKC
     FM260600 15003KT P6SM SKC=

USA.gov is the U.S. government's official web portal to all federal, state and local government web resources and services.